Time;durP1;ratioP1;P1;durP2;ratioP2;P2;SDS_P1;SDS_P2;PMS_P1;PMS_P2;Temp;Humidity;BMP_temperature;BMP_pressure;BME280_temperature;BME280_humidity;BME280_pressure;Samples;Min_cycle;Max_cycle;Signal;HPM_P1;HPM_P2
2024/01/15 00:00:01;;;;;;;2.05;1.95;;;2.20;1.00;;;2.24;100.00;98773.94;6096507;23;20163;-68
2024/01/15 00:02:37;;;;;;;2.85;1.67;;;2.20;1.00;;;2.28;100.00;98769.84;6096916;23;20202;-69
2024/01/15 00:05:06;;;;;;;2.65;2.45;;;2.20;1.00;;;2.28;100.00;98759.16;6096879;23;20495;-69
2024/01/15 00:07:36;;;;;;;2.50;2.40;;;2.20;1.00;;;2.30;100.00;98765.97;6096375;23;20191;-69
2024/01/15 00:10:06;;;;;;;2.20;2.00;;;2.30;1.00;;;2.15;100.00;98755.44;6096562;23;20168;-67
2024/01/15 00:12:34;;;;;;;3.33;3.03;;;2.20;1.00;;;2.23;100.00;98753.63;6096474;23;20186;-69
2024/01/15 00:15:05;;;;;;;1.77;1.67;;;2.20;1.00;;;2.22;100.00;98746.66;6096310;23;20250;-67
2024/01/15 00:17:34;;;;;;;2.83;2.63;;;2.20;1.00;;;2.18;100.00;98741.69;6096165;23;20186;-68
2024/01/15 00:20:04;;;;;;;2.85;2.65;;;2.20;1.00;;;2.24;100.00;98731.25;6095025;23;20164;-69
2024/01/15 00:22:35;;;;;;;3.65;3.30;;;2.20;1.00;;;2.12;100.00;98729.19;6096477;23;20207;-69
2024/01/15 00:25:04;;;;;;;2.78;2.60;;;2.20;1.00;;;2.13;100.00;98730.81;6096841;23;20224;-68
2024/01/15 00:27:32;;;;;;;3.30;2.28;;;2.10;1.00;;;2.11;100.00;98724.88;6102533;23;20190;-68
2024/01/15 00:30:01;;;;;;;4.05;3.75;;;2.10;1.00;;;2.14;100.00;98721.78;6101032;23;20163;-69
2024/01/15 00:32:31;;;;;;;5.65;3.88;;;2.10;1.00;;;2.18;100.00;98717.69;6099713;23;20171;-68
2024/01/15 00:35:00;;;;;;;2.55;2.17;;;2.10;1.00;;;2.21;100.00;98710.31;6097465;23;20156;-67
2024/01/15 00:37:28;;;;;;;2.65;1.80;;;2.20;1.00;;;2.12;100.00;98699.00;6095994;23;20187;-68
2024/01/15 00:39:57;;;;;;;4.10;3.83;;;2.10;1.00;;;2.15;100.00;98699.41;6098081;23;20179;-68
2024/01/15 00:42:25;;;;;;;4.32;4.05;;;2.10;1.00;;;2.16;100.00;98703.75;6098043;23;20178;-66
2024/01/15 00:44:55;;;;;;;2.22;2.13;;;2.20;1.00;;;2.22;100.00;98701.28;6097740;23;20164;-66
2024/01/15 00:47:23;;;;;;;8.52;2.67;;;2.20;1.00;;;2.19;100.00;98698.00;6097731;23;20683;-68
2024/01/15 00:49:53;;;;;;;5.88;2.90;;;2.20;1.00;;;2.11;100.00;98695.50;6098185;23;20152;-68
2024/01/15 00:52:22;;;;;;;2.47;2.28;;;2.10;1.00;;;2.07;100.00;98691.59;6098177;23;20159;-67
2024/01/15 00:54:50;;;;;;;2.83;2.10;;;2.00;1.00;;;2.12;100.00;98686.50;6098076;23;20172;-67
2024/01/15 00:57:19;;;;;;;4.43;4.00;;;2.10;1.00;;;2.23;100.00;98678.94;6097726;23;20191;-67
2024/01/15 00:59:49;;;;;;;4.82;3.00;;;2.20;1.00;;;2.25;100.00;98696.38;6097762;23;20191;-68
2024/01/15 01:02:17;;;;;;;3.10;2.67;;;2.20;1.00;;;2.07;100.00;98683.59;6097917;23;20446;-68
2024/01/15 01:04:46;;;;;;;7.38;3.25;;;2.10;1.00;;;2.05;100.00;98684.81;6097823;23;20196;-68
2024/01/15 01:07:15;;;;;;;1.40;0.88;;;2.10;1.00;;;2.02;100.00;98677.22;6098164;23;20219;-68
2024/01/15 01:09:45;;;;;;;3.97;2.55;;;2.00;1.00;;;1.94;100.00;98675.53;6098345;23;20155;-67
2024/01/15 01:12:14;;;;;;;4.43;4.13;;;2.00;1.00;;;1.84;100.00;98676.97;6098691;23;20194;-68
2024/01/15 01:14:42;;;;;;;2.60;2.40;;;1.90;1.00;;;1.70;100.00;98673.41;6098805;23;20163;-68
2024/01/15 01:17:11;;;;;;;3.05;2.50;;;1.80;1.00;;;1.66;100.00;98685.50;6100722;23;20186;-68
2024/01/15 01:19:39;;;;;;;1.75;1.65;;;1.70;79.00;;;1.53;100.00;98680.13;6099154;23;20164;-67
2024/01/15 01:22:08;;;;;;;3.72;2.13;;;1.60;99.90;;;1.54;100.00;98681.78;6098787;23;20656;-67
2024/01/15 01:24:37;;;;;;;2.25;2.15;;;1.60;99.90;;;1.63;100.00;98680.56;6098250;23;20171;-69
2024/01/15 01:27:06;;;;;;;3.53;2.25;;;1.60;1.00;;;1.57;100.00;98670.69;6097444;23;20529;-68
2024/01/15 01:29:34;;;;;;;4.35;3.35;;;1.60;99.90;;;1.70;100.00;98676.06;6097744;23;20656;-68
2024/01/15 01:32:03;;;;;;;2.72;2.47;;;1.70;1.00;;;1.64;100.00;98669.72;6097465;23;20147;-67
2024/01/15 01:34:33;;;;;;;7.65;2.42;;;1.70;99.90;;;1.65;100.00;98673.19;6097674;23;20164;-67
2024/01/15 01:37:02;;;;;;;5.05;1.83;;;1.70;99.90;;;1.70;100.00;98668.06;6097612;23;20219;-67
2024/01/15 01:39:30;;;;;;;4.72;3.33;;;1.70;99.90;;;1.70;100.00;98666.25;6097581;23;20175;-66
2024/01/15 01:42:00;;;;;;;3.95;2.28;;;1.70;99.90;;;1.71;100.00;98657.22;6097570;23;20175;-67
2024/01/15 01:44:29;;;;;;;3.85;3.50;;;1.70;99.90;;;1.77;100.00;98676.94;6097678;23;20163;-68
2024/01/15 01:47:00;;;;;;;3.50;3.30;;;1.80;99.90;;;1.68;100.00;98662.16;6097536;23;20199;-68
2024/01/15 01:49:29;;;;;;;7.72;4.90;;;1.70;99.90;;;1.67;100.00;98673.81;6097350;23;20232;-68
2024/01/15 01:52:00;;;;;;;1.92;1.83;;;1.70;99.90;;;1.73;100.00;98670.38;6097260;23;20207;-68
2024/01/15 01:54:33;;;;;;;2.47;2.28;;;1.70;1.00;;;1.72;100.00;98663.38;6097351;23;20156;-68
2024/01/15 01:57:05;;;;;;;1.90;1.80;;;1.70;1.00;;;1.57;100.00;98662.69;6097327;23;20674;-68
2024/01/15 01:59:36;;;;;;;5.40;2.72;;;1.70;1.00;;;1.57;100.00;98668.03;6097463;23;20148;-68
2024/01/15 02:02:06;;;;;;;2.97;1.75;;;1.60;99.90;;;1.61;100.00;98664.78;6097539;23;20155;-67
2024/01/15 02:04:36;;;;;;;2.28;1.30;;;1.60;99.90;;;1.58;100.00;98659.84;6097615;23;20163;-69
2024/01/15 02:07:05;;;;;;;2.60;2.40;;;1.60;11.50;;;1.58;100.00;98654.50;6097376;23;20637;-67
2024/01/15 02:09:34;;;;;;;12.32;3.30;;;1.60;1.00;;;1.47;100.00;98640.94;6097293;23;20176;-68
2024/01/15 02:12:04;;;;;;;1.85;1.75;;;1.60;1.00;;;1.49;100.00;98641.56;6097048;23;20152;-68
2024/01/15 02:14:33;;;;;;;7.63;1.23;;;1.60;1.00;;;1.43;100.00;98637.84;6097099;23;20159;-68
2024/01/15 02:17:02;;;;;;;2.88;2.55;;;1.60;1.00;;;1.34;100.00;98648.88;6096997;23;20529;-67
2024/01/15 02:19:30;;;;;;;4.53;1.90;;;1.50;1.00;;;1.32;100.00;98641.06;6097070;23;20179;-68
2024/01/15 02:21:59;;;;;;;2.72;2.17;;;1.40;1.00;;;1.38;100.00;98655.44;6097318;23;20238;-67
2024/01/15 02:24:28;;;;;;;1.70;1.60;;;1.50;1.00;;;1.40;100.00;98645.41;6097233;23;20159;-67
2024/01/15 02:26:57;;;;;;;2.33;1.48;;;1.40;1.00;;;1.54;100.00;98649.78;6097299;23;20262;-67
2024/01/15 02:29:26;;;;;;;1.65;1.55;;;1.50;99.90;;;1.58;100.00;98648.34;6119690;23;20669;-66
2024/01/15 02:31:54;;;;;;;3.25;3.03;;;1.60;15.20;;;1.70;100.00;98644.09;6097014;23;20262;-67
2024/01/15 02:34:23;;;;;;;2.25;2.15;;;1.60;1.00;;;1.63;100.00;98637.94;6097711;23;20175;-67
2024/01/15 02:36:52;;;;;;;3.55;3.03;;;1.60;1.00;;;1.62;100.00;98646.94;6095914;23;20262;-68
2024/01/15 02:39:20;;;;;;;7.85;2.53;;;1.60;1.00;;;1.55;100.00;98638.09;6097219;23;20172;-68
2024/01/15 02:41:50;;;;;;;4.45;2.75;;;1.60;1.00;;;1.56;100.00;98629.06;6097073;23;20211;-67
2024/01/15 02:44:18;;;;;;;22.63;2.85;;;1.60;1.00;;;1.47;100.00;98628.44;6096999;23;20202;-66
2024/01/15 02:46:47;;;;;;;1.25;1.13;;;1.60;1.00;;;1.56;100.00;98629.06;6096937;23;20183;-67
2024/01/15 02:49:15;;;;;;;2.00;0.95;;;1.60;1.00;;;1.58;100.00;98630.53;6097617;23;20176;-67
2024/01/15 02:51:44;;;;;;;3.03;2.88;;;1.60;1.00;;;1.60;100.00;98640.97;6098214;23;20187;-68
2024/01/15 02:54:13;;;;;;;3.95;3.15;;;1.60;1.00;;;1.69;100.00;98639.81;6097864;23;20175;-67
2024/01/15 02:56:42;;;;;;;1.35;1.25;;;1.70;1.00;;;1.75;100.00;98636.31;6098192;23;20192;-69
2024/01/15 02:59:12;;;;;;;4.13;2.15;;;1.70;1.00;;;1.74;100.00;98629.34;6098758;23;20210;-66
2024/01/15 03:01:41;;;;;;;2.33;2.13;;;1.70;1.00;;;1.77;100.00;98622.78;6097730;23;20171;-69
2024/01/15 03:04:09;;;;;;;1.00;0.80;;;1.70;1.00;;;1.77;100.00;98622.78;6097656;23;20604;-68
2024/01/15 03:06:38;;;;;;;5.03;3.55;;;1.80;1.00;;;1.78;100.00;98616.44;6098296;23;20183;-67
2024/01/15 03:09:06;;;;;;;3.10;1.30;;;1.70;1.00;;;1.82;100.00;98618.50;6098437;23;20569;-69
2024/01/15 03:11:39;;;;;;;1.08;0.98;;;1.80;1.00;;;1.76;100.00;98616.63;6098087;23;20164;-68
2024/01/15 03:14:07;;;;;;;3.25;3.05;;;1.80;1.00;;;1.84;100.00;98616.44;6098459;23;20520;-68
2024/01/15 03:16:37;;;;;;;4.53;2.83;;;1.80;1.00;;;1.83;100.00;98616.66;6098073;23;20739;-68
2024/01/15 03:19:07;;;;;;;1.70;0.98;;;1.80;99.90;;;1.86;100.00;98606.41;6097792;23;20159;-68
2024/01/15 03:21:36;;;;;;;2.28;2.08;;;1.80;99.90;;;1.91;100.00;98611.94;6097560;23;20489;-67
2024/01/15 03:24:05;;;;;;;3.83;1.67;;;1.90;99.90;;;2.00;100.00;98608.06;6096976;23;20164;-67
2024/01/15 03:26:34;;;;;;;4.05;0.90;;;1.90;99.90;;;1.95;100.00;98615.84;6097724;23;20195;-67
2024/01/15 03:29:02;;;;;;;3.53;2.50;;;1.90;99.90;;;1.89;100.00;98605.97;6097635;23;20257;-66
2024/01/15 03:31:31;;;;;;;2.05;1.38;;;1.90;99.90;;;1.94;100.00;98614.22;6096114;23;20399;-66
2024/01/15 03:34:01;;;;;;;2.85;1.35;;;1.90;99.90;;;1.82;100.00;98607.00;6119958;23;20197;-68
2024/01/15 03:36:30;;;;;;;1.70;1.02;;;1.90;99.90;;;1.89;100.00;98595.31;6096963;23;20187;-68
2024/01/15 03:39:01;;;;;;;3.30;3.00;;;1.90;99.90;;;1.91;100.00;98598.63;6097826;23;20608;-69
2024/01/15 03:41:30;;;;;;;0.80;0.60;;;2.00;99.90;;;1.91;100.00;98603.13;6098495;23;20163;-67
2024/01/15 03:43:59;;;;;;;1.10;1.00;;;1.90;99.90;;;1.82;100.00;98593.69;6098265;23;20234;-68
2024/01/15 03:46:33;;;;;;;1.90;1.40;;;1.90;99.90;;;1.83;100.00;98595.31;6098989;23;20183;-69
2024/01/15 03:49:06;;;;;;;2.17;1.75;;;1.90;99.90;;;1.87;100.00;98592.06;6098285;23;20191;-68
2024/01/15 03:51:35;;;;;;;5.53;5.00;;;1.90;99.90;;;1.87;100.00;98589.38;6101011;23;20635;-68
2024/01/15 03:54:04;;;;;;;4.38;2.38;;;1.90;99.90;;;1.84;100.00;98587.09;6103048;23;20608;-67
2024/01/15 03:56:32;;;;;;;1.90;1.77;;;1.90;99.90;;;1.91;100.00;98582.63;6096777;23;20191;-67
2024/01/15 03:59:01;;;;;;;2.35;1.73;;;1.90;99.90;;;1.83;100.00;98571.31;6096917;23;20195;-66
2024/01/15 04:01:30;;;;;;;2.08;1.00;;;1.90;99.90;;;1.85;100.00;98572.75;6119124;23;20624;-68
2024/01/15 04:04:03;;;;;;;3.10;1.45;;;1.90;99.90;;;1.83;100.00;98577.50;6096141;23;20532;-67
2024/01/15 04:06:33;;;;;;;1.65;1.55;;;1.90;99.90;;;1.84;100.00;98559.66;6095828;23;20569;-68
2024/01/15 04:09:01;;;;;;;5.28;2.92;;;1.90;99.90;;;1.90;100.00;98570.31;6096212;23;20267;-67
2024/01/15 04:11:30;;;;;;;0.82;0.70;;;1.90;99.90;;;1.82;100.00;98562.50;6096571;23;20222;-68
2024/01/15 04:13:59;;;;;;;1.67;1.25;;;1.90;99.90;;;1.84;100.00;98554.31;6095943;23;20560;-67
2024/01/15 04:16:27;;;;;;;0.80;0.60;;;1.90;99.90;;;1.87;100.00;98549.38;6098241;23;20187;-67
2024/01/15 04:18:56;;;;;;;3.08;2.63;;;1.90;99.90;;;1.81;100.00;98544.84;6098082;23;20539;-67
2024/01/15 04:21:24;;;;;;;0.90;0.60;;;1.90;99.90;;;1.83;100.00;98548.16;6098037;23;20172;-68
2024/01/15 04:23:54;;;;;;;1.70;1.55;;;1.90;99.90;;;1.89;100.00;98559.84;6098010;23;20525;-66
2024/01/15 04:26:23;;;;;;;1.65;1.55;;;1.90;99.90;;;1.89;100.00;98552.66;6097984;23;20210;-68
2024/01/15 04:28:51;;;;;;;0.80;0.60;;;1.90;99.90;;;1.92;100.00;98560.25;6098164;23;20250;-67
2024/01/15 04:31:24;;;;;;;3.20;2.33;;;1.90;99.90;;;1.94;100.00;98571.53;6097914;23;20222;-68
2024/01/15 04:33:54;;;;;;;2.35;1.20;;;2.00;99.90;;;1.89;100.00;98565.97;6098163;23;20160;-68
2024/01/15 04:36:22;;;;;;;1.60;1.13;;;2.00;99.90;;;1.96;100.00;98564.16;6098175;23;20244;-68
2024/01/15 04:38:51;;;;;;;2.00;1.63;;;2.00;99.90;;;1.98;100.00;98562.13;6098390;23;20176;-69
2024/01/15 04:41:21;;;;;;;1.85;1.15;;;2.00;99.90;;;1.93;100.00;98548.59;6098231;23;20159;-68
2024/01/15 04:43:50;;;;;;;2.03;1.15;;;2.00;99.90;;;1.95;100.00;98545.69;6098700;23;20248;-67
2024/01/15 04:46:19;;;;;;;1.85;1.75;;;2.00;99.90;;;2.00;100.00;98544.06;6120855;23;20198;-67
2024/01/15 04:48:48;;;;;;;1.48;1.23;;;2.00;99.90;;;2.00;100.00;98538.72;6098099;23;20148;-68
2024/01/15 04:51:17;;;;;;;1.00;0.90;;;2.10;99.90;;;1.95;100.00;98543.84;6098486;23;20184;-67
2024/01/15 04:53:46;;;;;;;5.95;1.27;;;2.00;99.90;;;1.94;100.00;98550.19;6097890;23;20156;-67
2024/01/15 04:56:14;;;;;;;1.63;1.35;;;2.00;99.90;;;2.09;100.00;98536.66;6099717;23;20214;-67
2024/01/15 04:58:44;;;;;;;0.90;0.60;;;2.10;99.90;;;2.00;100.00;98533.38;6097982;23;20167;-68
2024/01/15 05:01:12;;;;;;;2.85;1.92;;;2.10;99.90;;;2.03;100.00;98527.63;6097925;23;20549;-68
2024/01/15 05:03:41;;;;;;;2.08;1.00;;;2.10;99.90;;;2.07;100.00;98534.22;6098237;23;20156;-68
2024/01/15 05:06:10;;;;;;;1.40;1.30;;;2.10;99.90;;;2.08;100.00;98527.84;6098121;23;20191;-68
2024/01/15 05:08:39;;;;;;;0.80;0.50;;;2.10;99.90;;;2.09;100.00;98532.16;6098218;23;20178;-68
2024/01/15 05:11:07;;;;;;;1.95;0.70;;;2.10;99.90;;;2.10;100.00;98541.81;6103870;23;20226;-68
2024/01/15 05:13:36;;;;;;;1.02;0.93;;;2.10;99.90;;;2.14;100.00;98531.53;6101049;23;20216;-68
2024/01/15 05:16:06;;;;;;;1.65;1.45;;;2.10;99.90;;;2.10;99.68;98539.13;6123689;23;20191;-68
2024/01/15 05:18:37;;;;;;;3.70;2.58;;;2.10;99.90;;;2.12;100.00;98537.09;6101246;23;20156;-68
2024/01/15 05:21:06;;;;;;;1.33;1.00;;;2.20;99.90;;;2.07;100.00;98525.41;6101491;23;20148;-67
2024/01/15 05:23:36;;;;;;;2.70;1.40;;;2.10;99.90;;;2.10;100.00;98528.47;6100749;23;20156;-68
2024/01/15 05:26:05;;;;;;;1.70;1.55;;;2.20;99.90;;;2.12;100.00;98533.59;6101221;23;20206;-67
2024/01/15 05:28:33;;;;;;;1.27;0.70;;;2.20;99.90;;;2.05;100.00;98525.59;6100407;23;20187;-67
2024/01/15 05:31:03;;;;;;;1.00;0.60;;;2.10;99.90;;;2.00;100.00;98520.06;6099972;23;20183;-68
2024/01/15 05:33:32;;;;;;;2.67;1.60;;;2.10;99.90;;;2.03;100.00;98516.97;6100605;23;20155;-68
2024/01/15 05:36:02;;;;;;;0.88;0.73;;;2.10;99.90;;;2.01;100.00;98519.03;6099955;23;20209;-67
2024/01/15 05:38:30;;;;;;;1.70;1.35;;;2.00;99.90;;;2.02;100.00;98499.34;6099651;23;20167;-68
2024/01/15 05:40:59;;;;;;;0.90;0.80;;;2.10;99.90;;;2.07;100.00;98512.06;6099181;23;20226;-68
2024/01/15 05:43:28;;;;;;;1.30;1.20;;;2.10;99.90;;;2.12;99.52;98518.44;6122465;23;20176;-69
2024/01/15 05:45:56;;;;;;;1.45;1.35;;;2.10;99.90;;;2.12;99.65;98521.09;6100052;23;20194;-69
2024/01/15 05:48:25;;;;;;;0.85;0.70;;;2.20;99.90;;;2.10;100.00;98503.63;6121689;23;20172;-69
2024/01/15 05:50:55;;;;;;;1.73;1.55;;;2.10;99.90;;;2.21;99.60;98504.88;6099593;23;20210;-68
2024/01/15 05:53:24;;;;;;;1.60;1.00;;;2.20;99.90;;;2.19;99.87;98511.22;6101743;23;20152;-67
2024/01/15 05:55:53;;;;;;;1.80;1.50;;;2.20;99.90;;;2.29;99.66;98509.97;6102658;23;20179;-71
2024/01/15 05:58:21;;;;;;;0.80;0.50;;;2.30;99.90;;;2.13;100.00;98506.69;6097968;23;20182;-68
2024/01/15 06:00:50;;;;;;;0.80;0.50;;;2.20;99.90;;;2.15;100.00;98507.31;6097028;23;20189;-65
2024/01/15 06:04:06;;;;;;;1.42;0.50;;;2.20;99.90;;;2.08;100.00;98519.03;6097384;23;20167;-67
2024/01/15 06:06:36;;;;;;;1.60;1.50;;;2.20;99.90;;;2.06;100.00;98505.91;6097753;23;20184;-68
2024/01/15 06:09:06;;;;;;;0.85;0.60;;;2.10;99.90;;;2.03;100.00;98506.28;6097516;23;20167;-67
2024/01/15 06:11:35;;;;;;;1.25;0.85;;;2.10;99.90;;;2.07;100.00;98507.53;6097344;23;20267;-68
2024/01/15 06:14:03;;;;;;;1.00;0.85;;;2.10;99.90;;;2.14;100.00;98512.84;6097278;23;20168;-67
2024/01/15 06:16:31;;;;;;;1.75;1.45;;;2.20;99.90;;;2.15;100.00;98511.84;6096703;23;20187;-68
2024/01/15 06:19:00;;;;;;;1.80;0.93;;;2.20;99.90;;;2.18;100.00;98524.75;6097065;23;20164;-68
2024/01/15 06:21:29;;;;;;;0.80;0.50;;;2.20;99.90;;;2.22;100.00;98503.84;6097653;23;20152;-68
2024/01/15 06:23:59;;;;;;;1.05;0.68;;;2.20;99.90;;;2.28;100.00;98511.00;6097452;23;20262;-69
2024/01/15 06:26:34;;;;;;;0.80;0.68;;;2.30;99.90;;;2.33;100.00;98497.84;6097552;23;20248;-68
2024/01/15 06:29:03;;;;;;;0.90;0.70;;;2.30;99.90;;;2.33;99.15;98508.53;6110788;23;20226;-69
2024/01/15 06:31:32;;;;;;;1.33;0.90;;;2.40;99.90;;;2.34;98.23;98507.50;6099242;23;20180;-69
2024/01/15 06:34:00;;;;;;;0.90;0.63;;;2.40;99.90;;;2.36;98.57;98519.63;6097559;23;20168;-68
2024/01/15 06:36:29;;;;;;;1.10;0.88;;;2.40;99.90;;;2.33;99.75;98512.03;6119329;23;20191;-67
2024/01/15 06:38:59;;;;;;;1.48;0.93;;;2.40;99.90;;;2.34;100.00;98510.19;6096702;23;20175;-66
2024/01/15 06:41:27;;;;;;;0.80;0.50;;;2.40;99.90;;;2.33;100.00;98504.00;6096932;23;20199;-68
2024/01/15 06:43:56;;;;;;;0.80;0.50;;;2.40;99.90;;;2.31;100.00;98498.09;6096766;23;20219;-67
2024/01/15 06:46:25;;;;;;;4.40;2.13;;;2.40;99.90;;;2.32;100.00;98502.41;6097035;23;20214;-68
2024/01/15 06:48:53;;;;;;;1.00;0.85;;;2.40;99.90;;;2.25;100.00;98503.41;6096880;23;20211;-68
2024/01/15 06:51:22;;;;;;;0.80;0.70;;;2.40;99.90;;;2.22;100.00;98525.19;6097109;23;20186;-68
2024/01/15 06:53:54;;;;;;;0.80;0.60;;;2.30;99.90;;;2.35;100.00;98515.31;6096970;23;20167;-66
2024/01/15 06:56:24;;;;;;;4.28;2.78;;;2.30;99.90;;;2.34;100.00;98502.16;6097344;23;20236;-67
2024/01/15 06:58:52;;;;;;;0.88;0.73;;;2.30;99.90;;;2.34;100.00;98512.84;6096661;23;20164;-67
2024/01/15 07:01:20;;;;;;;0.80;0.55;;;2.40;99.90;;;2.30;100.00;98512.44;6095831;23;20164;-67
2024/01/15 07:03:49;;;;;;;1.92;1.35;;;2.30;99.90;;;2.30;100.00;98532.97;6119263;23;20164;-65
2024/01/15 07:06:18;;;;;;;0.80;0.50;;;2.30;99.90;;;2.39;100.00;98526.38;6095608;23;20190;-67
2024/01/15 07:08:47;;;;;;;0.95;0.70;;;2.40;99.90;;;2.33;99.74;98530.69;6096682;23;20613;-67
2024/01/15 07:11:16;;;;;;;8.70;2.03;;;2.40;99.90;;;2.36;99.89;98537.50;6096750;23;20198;-67
2024/01/15 07:13:46;;;;;;;7.72;0.70;;;2.40;99.90;;;2.35;98.88;98542.00;6097448;23;20222;-67
2024/01/15 07:16:15;;;;;;;0.80;0.50;;;2.40;99.90;;;2.40;98.55;98544.06;6096770;23;20679;-67
2024/01/15 07:18:57;;;;;;;1.80;1.35;;;2.40;99.90;;;2.41;98.28;98553.72;6097169;23;20167;-68
2024/01/15 07:21:26;;;;;;;1.50;1.40;;;2.40;99.90;;;2.39;98.09;98539.72;6096688;23;20171;-67
2024/01/15 07:23:54;;;;;;;4.40;1.08;;;2.40;99.90;;;2.41;97.87;98543.03;6097007;23;20593;-67
2024/01/15 07:26:23;;;;;;;1.17;1.08;;;2.40;99.90;;;2.35;97.52;98550.00;6096624;23;20194;-67
2024/01/15 07:28:53;;;;;;;1.33;1.17;;;2.40;99.90;;;2.42;97.07;98561.47;6096445;23;20502;-66
2024/01/15 07:31:21;;;;;;;0.80;0.40;;;2.40;99.90;;;2.45;96.82;98557.59;6096876;23;20632;-67
2024/01/15 07:33:50;;;;;;;0.80;0.60;;;2.50;99.90;;;2.47;96.39;98552.88;6096787;23;20179;-68
2024/01/15 07:36:23;;;;;;;3.90;1.50;;;2.50;99.90;;;2.53;96.44;98565.38;6094960;23;20191;-67
2024/01/15 07:38:51;;;;;;;1.33;0.88;;;2.50;99.90;;;2.55;96.45;98584.69;6095766;23;20493;-66
2024/01/15 07:41:20;;;;;;;3.75;0.65;;;2.50;99.90;;;2.55;96.79;98571.34;6096282;23;20179;-68
2024/01/15 07:43:48;;;;;;;1.90;0.98;;;2.50;99.90;;;2.52;95.67;98563.72;6095628;23;20156;-69
2024/01/15 07:46:18;;;;;;;4.20;2.67;;;2.50;99.90;;;2.56;96.00;98570.34;6096054;23;20209;-68
2024/01/15 07:48:47;;;;;;;1.13;1.02;;;2.60;99.90;;;2.50;95.81;98565.81;6095676;23;20171;-67
2024/01/15 07:51:15;;;;;;;0.90;0.70;;;2.60;99.90;;;2.60;96.10;98587.56;6096293;23;20172;-67
2024/01/15 07:53:44;;;;;;;0.80;0.60;;;2.60;99.90;;;2.68;96.06;98590.00;6095970;23;20231;-67
2024/01/15 07:56:12;;;;;;;1.65;0.85;;;2.60;99.90;;;2.52;96.53;98593.91;6096499;23;20278;-67
2024/01/15 07:58:41;;;;;;;0.80;0.50;;;2.60;99.90;;;2.50;96.98;98587.16;6096191;23;20164;-67
2024/01/15 08:01:11;;;;;;;0.80;0.70;;;2.50;99.90;;;2.48;97.00;98589.22;6095737;23;20210;-65
2024/01/15 08:03:41;;;;;;;1.95;1.85;;;2.50;99.90;;;2.53;96.52;98581.41;6096066;23;20151;-67
2024/01/15 08:06:10;;;;;;;1.92;0.73;;;2.50;99.90;;;2.52;96.19;98569.91;6095811;23;20188;-67
2024/01/15 08:08:39;;;;;;;0.80;0.50;;;2.50;99.90;;;2.58;97.07;98581.59;6118756;23;20172;-67
2024/01/15 08:11:07;;;;;;;1.10;1.00;;;2.50;99.90;;;2.58;96.49;98579.75;6095761;23;20191;-66
2024/01/15 08:13:36;;;;;;;3.03;1.23;;;2.60;99.90;;;2.59;97.08;98581.41;6096031;23;20170;-67
2024/01/15 08:16:05;;;;;;;1.77;1.67;;;2.60;99.90;;;2.53;96.39;98586.75;6095849;23;20187;-67
2024/01/15 08:18:34;;;;;;;1.02;0.93;;;2.60;99.90;;;2.59;96.73;98597.44;6094421;23;20175;-67
2024/01/15 08:21:05;;;;;;;0.90;0.60;;;2.60;99.90;;;2.67;96.70;98601.72;6095902;23;20152;-67
2024/01/15 08:23:36;;;;;;;0.80;0.50;;;2.60;99.90;;;2.72;95.50;98599.25;6096089;23;20152;-68
2024/01/15 08:26:05;;;;;;;1.25;1.15;;;2.70;99.90;;;2.71;95.74;98597.59;6096382;23;20187;-67
2024/01/15 08:28:33;;;;;;;0.80;0.60;;;2.70;99.90;;;2.72;95.83;98590.41;6096297;23;20199;-67
2024/01/15 08:31:04;;;;;;;3.03;1.05;;;2.70;99.90;;;2.66;95.41;98597.44;6096071;23;20227;-67
2024/01/15 08:33:33;;;;;;;0.80;0.65;;;2.70;99.90;;;2.73;95.43;98592.88;6096022;23;20180;-68
2024/01/15 08:36:02;;;;;;;1.77;1.20;;;2.70;99.90;;;2.68;95.30;98614.03;6096003;23;20187;-66
2024/01/15 08:38:32;;;;;;;0.98;0.80;;;2.70;99.90;;;2.69;94.60;98580.97;6096143;23;20163;-68
2024/01/15 08:41:00;;;;;;;0.80;0.50;;;2.70;99.90;;;2.70;94.78;98595.97;6096520;23;20230;-67
2024/01/15 08:43:30;;;;;;;1.70;1.60;;;2.70;99.90;;;2.70;95.18;98598.66;6096154;23;20180;-67
2024/01/15 08:46:00;;;;;;;0.80;0.60;;;2.70;99.90;;;2.74;94.88;98605.22;6095721;23;20270;-67
2024/01/15 08:48:29;;;;;;;0.80;0.57;;;2.80;99.90;;;2.70;94.69;98598.66;6096386;23;20192;-67
2024/01/15 08:50:57;;;;;;;0.80;0.60;;;2.70;99.90;;;2.75;94.77;98596.19;6096785;23;20175;-69
2024/01/15 08:53:27;;;;;;;0.80;0.50;;;2.70;99.90;;;2.69;95.41;98598.84;6096243;23;20496;-65
2024/01/15 08:55:57;;;;;;;1.10;0.70;;;2.70;99.90;;;2.63;94.96;98592.47;6096910;23;20648;-69
2024/01/15 08:58:25;;;;;;;1.52;1.02;;;2.70;99.90;;;2.53;96.00;98592.91;6095088;23;20171;-67
2024/01/15 09:00:56;;;;;;;0.80;0.50;;;2.60;99.90;;;2.59;95.90;98602.75;6098346;23;20656;-67
2024/01/15 09:03:25;;;;;;;1.48;1.23;;;2.60;99.90;;;2.71;95.56;98610.94;6098617;23;20180;-68
2024/01/15 09:05:54;;;;;;;1.42;0.85;;;2.70;99.90;;;2.72;94.87;98609.94;6121247;23;20198;-68
2024/01/15 09:08:23;;;;;;;0.80;0.40;;;2.70;99.90;;;2.71;95.71;98607.50;6098080;23;20155;-66
2024/01/15 09:10:51;;;;;;;1.13;0.60;;;2.70;99.90;;;2.67;95.38;98614.25;6098443;23;20163;-66
2024/01/15 09:13:21;;;;;;;0.90;0.70;;;2.70;99.90;;;2.68;96.23;98599.88;6097973;23;20180;-66
2024/01/15 09:15:49;;;;;;;0.90;0.50;;;2.70;99.90;;;2.72;96.79;98606.44;6097926;23;20183;-69
2024/01/15 09:18:18;;;;;;;1.00;0.60;;;2.70;99.90;;;2.71;96.68;98616.28;6098412;23;20155;-66
2024/01/15 09:20:47;;;;;;;0.80;0.50;;;2.70;99.90;;;2.67;96.53;98625.75;6098665;23;20159;-68
2024/01/15 09:23:15;;;;;;;0.80;0.50;;;2.70;99.90;;;2.75;96.43;98630.06;6098706;23;20164;-69
2024/01/15 09:25:44;;;;;;;3.10;1.08;;;2.70;99.90;;;2.76;96.44;98624.50;6098887;23;20667;-67
2024/01/15 09:28:12;;;;;;;1.48;1.05;;;2.80;99.90;;;2.85;96.15;98633.16;6097944;23;20222;-65
2024/01/15 09:30:42;;;;;;;0.90;0.75;;;2.80;99.90;;;2.97;95.60;98637.63;6098278;23;20211;-68
2024/01/15 09:33:11;;;;;;;3.63;0.85;;;2.90;99.90;;;2.94;95.03;98632.72;6098163;23;20183;-68
2024/01/15 09:35:39;;;;;;;0.90;0.60;;;2.90;99.90;;;2.96;94.67;98630.66;6097884;23;20183;-66
2024/01/15 09:38:08;;;;;;;1.23;0.75;;;2.90;99.90;;;3.00;94.42;98621.19;6098877;23;20176;-67
2024/01/15 09:40:44;;;;;;;0.80;0.50;;;3.00;99.90;;;3.15;93.23;98622.81;6100584;23;20171;-68
2024/01/15 09:43:19;;;;;;;0.80;0.50;;;3.10;99.90;;;3.28;93.24;98639.63;6100923;23;20524;-68
2024/01/15 09:45:52;;;;;;;0.80;0.50;;;3.20;99.90;;;3.42;91.70;98632.38;6100377;23;20186;-68
2024/01/15 09:48:21;;;;;;;1.00;0.70;;;3.30;99.90;;;3.38;91.25;98647.22;6098112;23;20223;-67
2024/01/15 09:50:51;;;;;;;0.90;0.70;;;3.30;99.90;;;3.53;92.08;98625.56;6097699;23;20148;-68
2024/01/15 09:53:21;;;;;;;1.00;0.90;;;3.40;99.90;;;3.67;90.89;98637.84;6097965;23;20211;-66
2024/01/15 09:55:51;;;;;;;1.15;0.73;;;3.50;99.90;;;3.72;90.05;98630.00;6098190;23;20528;-67
2024/01/15 09:58:20;;;;;;;2.05;1.13;;;3.50;99.90;;;3.55;90.97;98624.31;6097689;23;20164;-68
2024/01/15 10:00:51;;;;;;;1.63;0.60;;;3.50;99.90;;;3.48;91.00;98623.53;6097323;23;20226;-67
2024/01/15 10:03:21;;;;;;;0.90;0.60;;;3.50;99.90;;;3.49;91.23;98617.13;6097259;23;20148;-68
2024/01/15 10:05:50;;;;;;;2.35;1.02;;;3.40;99.90;;;3.53;91.59;98618.38;6097513;23;20188;-69
2024/01/15 10:08:20;;;;;;;0.80;0.50;;;3.50;99.90;;;3.55;90.57;98618.13;6097249;23;20156;-67
2024/01/15 10:10:50;;;;;;;0.90;0.52;;;3.50;99.90;;;3.57;90.87;98622.25;6097353;23;20167;-67
2024/01/15 10:13:19;;;;;;;0.93;0.63;;;3.50;99.90;;;3.58;90.26;98617.72;6097082;23;20186;-67
2024/01/15 10:15:49;;;;;;;0.80;0.50;;;3.50;99.90;;;3.53;90.53;98615.69;6097068;23;20192;-67
2024/01/15 10:18:18;;;;;;;0.90;0.68;;;3.50;99.90;;;3.59;90.62;98611.31;6096756;23;20156;-67
2024/01/15 10:20:48;;;;;;;1.73;1.45;;;3.50;99.90;;;3.61;89.61;98607.41;6096981;23;20162;-68
2024/01/15 10:23:16;;;;;;;1.15;0.95;;;3.50;99.90;;;3.55;90.14;98612.78;6097022;23;20152;-67
2024/01/15 10:25:45;;;;;;;3.15;2.45;;;3.50;99.90;;;3.69;89.64;98609.84;6097103;23;20194;-67
2024/01/15 10:28:15;;;;;;;0.80;0.60;;;3.60;99.90;;;3.77;88.59;98617.63;6098095;23;20688;-68
2024/01/15 10:30:43;;;;;;;0.90;0.73;;;3.70;99.90;;;3.82;89.26;98623.16;6099013;23;20171;-68
2024/01/15 10:33:15;;;;;;;0.80;0.50;;;;;;;3.61;89.04;98607.41;6099170;23;20625;-67
2024/01/15 10:35:44;;;;;;;0.90;0.50;;;3.60;99.90;;;3.50;89.86;98618.78;6098388;23;20532;-67
2024/01/15 10:38:13;;;;;;;1.00;0.70;;;3.50;99.90;;;3.33;90.80;98629.13;6096883;23;20155;-66